Time;durP1;ratioP1;P1;durP2;ratioP2;P2;SDS_P1;SDS_P2;PMS_P1;PMS_P2;Temp;Humidity;BMP_temperature;BMP_pressure;BME280_temperature;BME280_humidity;BME280_pressure;Samples;Min_cycle;Max_cycle;Signal;HPM_P1;HPM_P2
2023/06/02 00:00:50;;;;;;;0.68;0.55;;;;;;;12.42;62.41;101276.25;15741019;28;20051;-50
2023/06/02 00:08:24;;;;;;;1.07;0.70;;;;;;;12.95;60.49;101269.88;15743624;28;20063;-47
2023/06/02 00:15:57;;;;;;;3.28;1.25;;;;;;;12.74;61.64;101279.91;15738755;28;20053;-46
2023/06/02 00:23:32;;;;;;;12.13;2.23;;;;;;;12.76;61.44;101293.97;15739983;28;20045;-46
2023/06/02 00:31:05;;;;;;;0.22;0.22;;;;;;;12.73;61.39;101286.34;15735169;28;20151;-46
2023/06/02 00:38:41;;;;;;;2.90;0.83;;;;;;;12.50;62.20;101288.66;15740001;28;20040;-47
2023/06/02 00:46:14;;;;;;;2.47;0.70;;;;;;;12.44;62.68;101281.41;15742809;28;20053;-49
2023/06/02 00:53:48;;;;;;;;;;;;;;;11.55;65.02;101287.13;15729960;28;20040;-45
2023/06/02 01:01:22;;;;;;;4.40;0.63;;;;;;;11.45;65.01;101284.81;15738277;28;19939;-45
2023/06/02 01:08:57;;;;;;;2.40;0.52;;;;;;;12.13;63.33;101293.66;15724334;28;20048;-47
2023/06/02 01:16:32;;;;;;;1.70;0.68;;;;;;;12.25;63.00;101293.84;15738000;28;20063;-45
2023/06/02 01:24:07;;;;;;;3.60;0.68;;;;;;;12.28;62.78;101298.00;15729275;28;20040;-49
2023/06/02 01:31:46;;;;;;;7.05;1.33;;;;;;;11.78;64.11;101297.50;15745191;28;20041;-48
2023/06/02 01:39:22;;;;;;;1.45;0.63;;;;;;;11.56;64.62;101300.34;15755878;28;20075;-45
2023/06/02 01:46:55;;;;;;;10.32;0.80;;;;;;;11.88;63.14;101298.78;15754056;28;20044;-52
2023/06/02 01:54:29;;;;;;;1.90;1.08;;;;;;;11.56;63.65;101299.53;15735484;28;20286;-49
2023/06/02 02:02:03;;;;;;;0.73;0.55;;;;;;;11.46;64.25;101306.13;15732989;28;20176;-48
2023/06/02 02:09:37;;;;;;;1.13;0.90;;;;;;;11.40;63.57;101306.09;15749035;28;20409;-46
2023/06/02 02:17:11;;;;;;;1.15;0.82;;;;;;;11.47;63.64;101315.88;15745898;28;20305;-47
2023/06/02 02:24:46;;;;;;;1.33;0.80;;;;;;;11.31;64.54;101312.69;15727658;28;20068;-46
2023/06/02 02:32:18;;;;;;;3.30;0.85;;;;;;;11.26;64.15;101320.53;15735281;28;20032;-49
2023/06/02 02:39:53;;;;;;;2.63;1.27;;;;;;;10.98;65.36;101316.88;15749164;28;20091;-46
2023/06/02 02:47:26;;;;;;;1.58;0.47;;;;;;;11.19;64.36;101318.66;15739841;28;20051;-49
2023/06/02 02:55:00;;;;;;;1.43;1.10;;;;;;;10.66;65.91;101323.72;15783820;28;20119;-46
2023/06/02 03:02:33;;;;;;;1.98;0.98;;;;;;;10.60;65.59;101329.88;15759684;28;20075;-49
2023/06/02 03:10:09;;;;;;;3.60;1.20;;;;;;;10.85;64.86;101346.34;15738378;28;20052;-46
2023/06/02 03:17:45;;;;;;;0.47;0.30;;;;;;;10.73;65.69;101343.41;15752492;28;20683;-50
2023/06/02 03:25:21;;;;;;;2.88;1.17;;;;;;;10.96;65.07;101353.88;15743283;28;20445;-49
2023/06/02 03:32:54;;;;;;;1.17;0.95;;;;;;;11.07;64.91;101349.78;15747666;28;20048;-47
2023/06/02 03:40:29;;;;;;;0.57;0.57;;;;;;;10.70;65.54;101359.88;15741008;28;20080;-47
2023/06/02 03:48:04;;;;;;;3.20;1.58;;;;;;;11.08;65.05;101359.50;15725326;28;20135;-47
2023/06/02 03:55:39;;;;;;;1.38;0.65;;;;;;;11.13;65.13;101375.03;15737383;28;20695;-47
2023/06/02 04:03:14;;;;;;;3.38;1.20;;;;;;;11.03;65.06;101380.75;15737231;28;20036;-48
2023/06/02 04:10:48;;;;;;;1.63;1.33;;;;;;;11.11;65.33;101379.78;15719915;28;20127;-45
2023/06/02 04:18:21;;;;;;;0.47;0.47;;;;;;;11.42;64.56;101382.84;15753849;28;20110;-45
2023/06/02 04:25:55;;;;;;;0.38;0.38;;;;;;;11.21;64.75;101386.44;15742343;28;20048;-50
2023/06/02 04:33:29;;;;;;;0.68;0.55;;;;;;;11.27;64.45;101397.44;15717541;22;20118;-55
2023/06/02 04:41:06;;;;;;;5.85;1.08;;;;;;;11.19;65.00;101393.91;15672872;28;20049;-49
2023/06/02 04:48:40;;;;;;;0.80;0.70;;;;;;;11.50;63.80;101401.47;15675411;28;20033;-52
2023/06/02 04:56:15;;;;;;;0.30;0.30;;;;;;;12.03;63.52;101405.41;15682939;28;20497;-51
2023/06/02 05:03:48;;;;;;;1.77;0.30;;;;;;;11.92;63.21;101404.97;15685231;28;20122;-50
2023/06/02 05:11:23;;;;;;;1.77;1.10;;;;;;;11.70;63.95;101404.25;15683881;28;20064;-49
2023/06/02 05:18:56;;;;;;;1.92;0.85;;;;;;;11.92;63.64;101402.28;15683692;28;20390;-50
2023/06/02 05:26:30;;;;;;;2.83;1.50;;;;;;;12.29;62.72;101412.72;15684317;28;20064;-49
2023/06/02 05:34:03;;;;;;;2.55;1.35;;;;;;;12.34;63.29;101426.38;15683408;28;20132;-53
2023/06/02 05:41:38;;;;;;;2.55;0.65;;;;;;;12.52;62.44;101434.69;15682924;28;20037;-48
2023/06/02 05:49:13;;;;;;;1.02;0.63;;;;;;;12.37;62.73;101442.97;15682694;28;20044;-51
2023/06/02 05:56:47;;;;;;;2.17;1.30;;;;;;;12.61;63.49;101451.47;15681905;28;20310;-48
2023/06/02 06:04:20;;;;;;;1.90;0.50;;;;;;;13.01;61.48;101445.06;15664010;28;20064;-49
2023/06/02 06:11:54;;;;;;;;;;;;;;;12.98;62.11;101456.25;15682130;28;20033;-53
2023/06/02 06:19:29;;;;;;;4.80;1.20;;;;;;;13.22;61.57;101462.03;15665830;28;20266;-52
2023/06/02 06:27:04;;;;;;;4.13;1.80;;;;;;;13.69;60.45;101462.75;15682538;28;20096;-49
2023/06/02 06:34:37;;;;;;;3.75;1.08;;;;;;;13.76;60.65;101468.97;15679955;28;20033;-52
2023/06/02 06:42:13;;;;;;;1.55;1.25;;;;;;;13.58;61.39;101468.81;15680016;28;20045;-49
2023/06/02 06:50:03;;;;;;;1.25;0.73;;;;;;;13.47;61.32;101475.66;15678409;28;20056;-51
2023/06/02 06:57:37;;;;;;;3.93;1.07;;;;;;;13.58;61.25;101490.41;15678060;28;20509;-53
2023/06/02 07:05:10;;;;;;;2.83;1.40;;;;;;;13.81;60.73;101485.34;15678450;28;20043;-52
2023/06/02 07:12:44;;;;;;;1.13;0.80;;;;;;;14.05;62.58;101491.88;15678562;28;20055;-52
2023/06/02 07:20:17;;;;;;;1.85;0.70;;;;;;;13.78;65.43;101497.38;15675201;28;20040;-53
2023/06/02 07:27:53;;;;;;;;;;;;;;;13.47;67.47;101508.88;15670425;28;20539;-49
2023/06/02 07:35:26;;;;;;;3.70;0.88;;;;;;;15.12;63.63;101490.16;15676728;28;19990;-51
2023/06/02 07:43:00;;;;;;;7.50;1.33;;;;;;;15.67;61.52;101508.38;15677492;28;20487;-52
2023/06/02 07:50:33;;;;;;;1.83;0.93;;;;;;;15.95;59.86;101481.56;15680036;28;20087;-48
2023/06/02 07:58:09;;;;;;;6.15;1.67;;;;;;;16.18;58.19;101517.94;15677278;28;20334;-49
2023/06/02 08:05:42;;;;;;;7.93;2.40;;;;;;;16.18;58.92;101520.63;15677297;28;20041;-48
2023/06/02 08:13:17;;;;;;;7.50;1.88;;;;;;;16.18;57.61;101521.50;15676054;28;20083;-49
2023/06/02 08:20:49;;;;;;;3.60;2.15;;;;;;;15.62;59.49;101533.38;15673714;28;20095;-50
2023/06/02 08:28:25;;;;;;;3.47;1.80;;;;;;;15.66;58.68;101534.56;15674271;28;20501;-49
2023/06/02 08:35:59;;;;;;;2.95;1.85;;;;;;;15.51;59.22;101537.63;15674125;28;20037;-52
2023/06/02 08:43:35;;;;;;;3.88;1.52;;;;;;;15.36;59.81;101544.44;15626340;28;20354;-51
2023/06/02 08:51:11;;;;;;;6.40;2.53;;;;;;;15.99;58.29;101534.22;15611344;28;20046;-50
2023/06/02 08:58:48;;;;;;;2.80;1.60;;;;;;;15.88;58.86;101544.97;15611481;28;20080;-50
2023/06/02 09:06:22;;;;;;;1.33;1.20;;;;;;;15.71;58.38;101544.72;15611338;28;20407;-50
2023/06/02 09:13:57;;;;;;;2.35;1.30;;;;;;;16.32;57.44;101552.78;15611636;28;20041;-50
2023/06/02 09:21:32;;;;;;;2.33;1.17;;;;;;;17.01;55.25;101558.66;15611183;28;20442;-49
2023/06/02 09:29:09;;;;;;;3.97;1.10;;;;;;;16.99;54.01;101570.81;15620647;28;20213;-49
2023/06/02 09:36:42;;;;;;;7.93;1.50;;;;;;;18.86;51.24;101562.41;15609891;28;20503;-50
2023/06/02 09:44:19;;;;;;;0.82;0.50;;;;;;;20.44;44.42;101560.31;15614832;28;20053;-50
2023/06/02 09:51:52;;;;;;;1.23;0.80;;;;;;;19.75;45.38;101566.28;15620732;28;20124;-49
2023/06/02 09:59:26;;;;;;;;;;;;;;;19.29;43.04;101560.13;15621592;28;20045;-52
2023/06/02 10:07:13;;;;;;;5.20;0.90;;;;;;;19.82;43.21;101562.31;15621399;28;20351;-52
2023/06/02 10:15:18;;;;;;;0.40;0.40;;;;;;;18.45;42.18;101574.38;15618755;28;20050;-51
2023/06/02 10:23:03;;;;;;;1.02;0.57;;;;;;;19.04;42.17;101576.88;15619722;28;20053;-50
2023/06/02 10:30:37;;;;;;;1.08;0.70;;;;;;;19.10;39.92;101567.69;15618158;28;20103;-52
2023/06/02 10:38:25;;;;;;;1.67;0.20;;;;;;;19.45;35.98;101566.63;15619269;28;20502;-54
2023/06/02 10:46:17;;;;;;;0.20;0.20;;;;;;;20.99;31.06;101545.63;15610280;28;20550;-52
2023/06/02 10:54:16;;;;;;;0.80;0.50;;;;;;;22.34;29.27;101554.09;15620041;28;20052;-55
2023/06/02 11:01:52;;;;;;;0.47;0.20;;;;;;;22.93;28.23;101544.63;15628677;28;20041;-53
2023/06/02 11:09:34;;;;;;;0.93;0.35;;;;;;;23.55;26.86;101538.00;15617588;28;20476;-54
2023/06/02 11:17:32;;;;;;;0.30;0.20;;;;;;;23.52;26.83;101540.47;15617228;28;20052;-53
2023/06/02 11:25:05;;;;;;;0.63;0.35;;;;;;;23.00;26.49;101541.63;15616548;28;20100;-52
2023/06/02 11:32:40;;;;;;;0.35;0.17;;;;;;;24.17;27.59;101544.09;15615327;28;20049;-53
2023/06/02 11:40:13;;;;;;;0.73;0.10;;;;;;;23.95;26.77;101540.91;15615546;28;20406;-54
2023/06/02 11:47:47;;;;;;;0.08;0.08;;;;;;;25.22;27.00;101548.34;15615293;28;20060;-55
2023/06/02 11:55:20;;;;;;;3.22;0.30;;;;;;;24.22;26.29;101551.50;15615101;28;20502;-52
2023/06/02 12:03:08;;;;;;;1.60;0.40;;;;;;;23.69;29.35;101549.25;15612487;28;20049;-53
2023/06/02 12:10:42;;;;;;;0.00;0.00;;;;;;;24.04;27.59;101551.00;15612171;28;20030;-53
2023/06/02 12:18:28;;;;;;;2.63;0.85;;;;;;;22.87;29.48;101556.66;15611663;28;20387;-54
2023/06/02 12:26:00;;;;;;;0.40;0.15;;;;;;;24.14;28.56;101553.72;15612411;28;20033;-54
2023/06/02 12:33:35;;;;;;;1.10;0.30;;;;;;;23.57;26.43;101549.50;15613005;28;20115;-54
2023/06/02 12:41:10;;;;;;;0.20;0.15;;;;;;;25.49;24.69;101544.25;15610965;28;20275;-54
2023/06/02 12:48:45;;;;;;;0.13;0.13;;;;;;;23.43;27.13;101551.16;15611078;28;20128;-53
2023/06/02 12:56:18;;;;;;;0.93;0.30;;;;;;;22.00;27.71;101539.97;15611995;28;20579;-55
2023/06/02 13:03:55;;;;;;;0.03;0.03;;;;;;;21.88;27.75;101553.06;15610430;28;20046;-55
2023/06/02 13:11:28;;;;;;;0.65;0.28;;;;;;;22.98;26.68;101544.63;15610519;28;20042;-55
2023/06/02 13:19:02;;;;;;;0.15;0.15;;;;;;;23.30;23.26;101552.56;15621917;28;20042;-53
2023/06/02 13:26:35;;;;;;;0.10;0.03;;;;;;;22.66;23.63;101553.91;15604748;28;20620;-53
2023/06/02 13:34:10;;;;;;;1.98;0.10;;;;;;;22.80;23.54;101551.44;15621077;28;20188;-55
2023/06/02 13:41:46;;;;;;;1.08;0.20;;;;;;;22.29;23.96;101555.97;15621953;28;20077;-53
2023/06/02 13:49:20;;;;;;;0.00;0.00;;;;;;;22.51;22.42;101559.31;15621664;28;20548;-53
2023/06/02 13:56:53;;;;;;;0.40;0.20;;;;;;;22.70;22.42;101572.50;15620021;28;20494;-51
2023/06/02 14:04:29;;;;;;;0.00;0.00;;;;;;;21.54;22.09;101568.97;15603463;28;20498;-54
2023/06/02 14:12:05;;;;;;;0.57;0.35;;;;;;;22.09;22.80;101568.44;15619060;28;20091;-50
2023/06/02 14:19:43;;;;;;;0.20;0.03;;;;;;;21.36;22.97;101575.69;15620421;28;20066;-52
2023/06/02 14:27:16;;;;;;;0.05;0.03;;;;;;;21.24;24.14;101581.31;15618593;28;20034;-51
2023/06/02 14:34:50;;;;;;;0.28;0.15;;;;;;;21.16;23.27;101579.03;15619756;28;20505;-53
2023/06/02 14:42:22;;;;;;;0.00;0.00;;;;;;;20.59;23.99;101574.97;15617645;28;20402;-54
2023/06/02 14:49:59;;;;;;;0.10;0.10;;;;;;;20.71;24.10;101576.75;15617774;28;20136;-50
2023/06/02 14:57:32;;;;;;;0.55;0.00;;;;;;;20.52;23.71;101574.38;15618595;28;20160;-53
2023/06/02 15:05:07;;;;;;;0.50;0.10;;;;;;;20.26;24.21;101583.28;15601447;28;20045;-51
2023/06/02 15:12:40;;;;;;;0.10;0.10;;;;;;;20.31;24.60;101584.16;15600012;28;20111;-50
2023/06/02 15:20:14;;;;;;;1.02;0.20;;;;;;;20.04;25.71;101586.81;15617387;28;20049;-52
2023/06/02 15:27:48;;;;;;;0.00;0.00;;;;;;;19.92;26.30;101594.31;15617144;28;20128;-50
2023/06/02 15:35:22;;;;;;;0.13;0.10;;;;;;;20.00;25.33;101603.94;15616518;28;20413;-52
2023/06/02 15:42:55;;;;;;;0.00;0.00;;;;;;;19.62;24.36;101602.84;15614272;28;20091;-53
2023/06/02 15:50:30;;;;;;;2.58;0.50;;;;;;;19.78;24.50;101607.47;15613711;28;20064;-50
2023/06/02 15:58:03;;;;;;;7.32;0.13;;;;;;;18.94;24.17;101607.44;15613863;28;20042;-53
2023/06/02 16:05:38;;;;;;;0.28;0.13;;;;;;;18.98;24.51;101608.59;15620836;28;20045;-52
2023/06/02 16:13:10;;;;;;;0.10;0.00;;;;;;;19.09;23.90;101623.22;15614498;28;20259;-52
2023/06/02 16:20:44;;;;;;;0.13;0.05;;;;;;;18.73;24.78;101617.09;15612813;28;20124;-53
2023/06/02 16:28:17;;;;;;;0.17;0.10;;;;;;;19.09;23.80;101625.94;15613280;28;20087;-50
2023/06/02 16:35:52;;;;;;;7.07;0.22;;;;;;;18.10;23.53;101578.06;15589052;23;20060;-86
2023/06/02 16:43:25;;;;;;;0.05;0.00;;;;;;;18.70;24.87;101614.88;15577436;28;20068;-86
2023/06/02 16:51:00;;;;;;;0.40;0.13;;;;;;;18.77;26.33;101621.00;15553167;28;20152;-85
2023/06/02 16:58:36;;;;;;;0.25;0.15;;;;;;;18.39;27.17;101593.56;15549345;28;20064;-86
2023/06/02 17:06:11;;;;;;;0.30;0.13;;;;;;;18.10;27.25;101610.66;15549905;28;20050;-85
2023/06/02 17:13:44;;;;;;;0.00;0.00;;;;;;;16.97;26.55;101533.09;15567496;28;20426;-86
2023/06/02 17:21:21;;;;;;;0.00;0.00;;;;;;;17.51;27.09;101581.84;15565176;28;20073;-85
2023/06/02 17:28:54;;;;;;;0.35;0.15;;;;;;;17.21;26.42;101652.50;15548911;28;20069;-85
2023/06/02 17:36:30;;;;;;;0.00;0.00;;;;;;;17.02;26.05;101616.44;15562917;28;20136;-85
2023/06/02 17:44:03;;;;;;;0.52;0.10;;;;;;;17.02;26.33;101644.44;15556192;28;20046;-85
2023/06/02 17:51:38;;;;;;;0.30;0.17;;;;;;;16.72;26.52;101625.44;15577964;28;20046;-87
2023/06/02 17:59:11;;;;;;;0.13;0.10;;;;;;;16.65;26.76;101556.09;15600489;28;20030;-84
2023/06/02 18:06:50;;;;;;;0.57;0.28;;;;;;;16.25;29.62;101622.44;15635650;28;20026;-83
2023/06/02 18:14:24;;;;;;;0.73;0.20;;;;;;;16.20;29.94;101597.91;15598989;28;20041;-86
2023/06/02 18:22:00;;;;;;;0.30;0.30;;;;;;;16.42;29.79;101633.53;15573174;28;20569;-85
2023/06/02 18:29:36;;;;;;;0.22;0.22;;;;;;;16.39;30.44;101671.06;15602641;28;20605;-86
2023/06/02 18:37:22;;;;;;;0.80;0.20;;;;;;;16.18;30.56;101673.19;15603751;28;20046;-84
2023/06/02 18:45:04;;;;;;;0.52;0.32;;;;;;;16.13;31.84;101637.78;15583615;28;20041;-85
2023/06/02 18:52:41;;;;;;;0.28;0.28;;;;;;;15.47;31.17;101650.03;15586961;28;20050;-85
2023/06/02 19:00:20;;;;;;;0.88;0.00;;;;;;;15.25;31.86;101633.38;15621174;28;20046;-86
2023/06/02 19:07:54;;;;;;;1.80;0.70;;;;;;;14.96;31.41;101659.13;15611844;28;20303;-86
2023/06/02 19:15:27;;;;;;;0.00;0.00;;;;;;;15.09;32.10;101676.31;15565235;28;20523;-87
2023/06/02 19:23:02;;;;;;;0.00;0.00;;;;;;;14.68;32.56;101653.25;15580602;28;20100;-87
2023/06/02 19:30:35;;;;;;;0.22;0.22;;;;;;;14.88;33.18;101778.34;15573414;28;20034;-85
2023/06/02 19:38:12;;;;;;;0.20;0.20;;;;;;;14.76;33.56;101788.97;15553749;28;20458;-85
2023/06/02 19:45:45;;;;;;;0.45;0.20;;;;;;;14.54;33.94;101755.13;15553245;28;20514;-85
2023/06/02 19:53:20;;;;;;;0.40;0.15;;;;;;;13.77;34.46;101724.25;15569778;28;20053;-86
2023/06/02 20:00:56;;;;;;;0.50;0.30;;;;;;;14.13;34.80;101774.28;15567503;28;20038;-84
2023/06/02 20:08:35;;;;;;;0.00;0.00;;;;;;;13.86;35.03;101732.97;15564313;28;20049;-84
2023/06/02 20:16:16;;;;;;;0.45;0.20;;;;;;;14.11;35.03;101771.78;15547487;28;20068;-86
2023/06/02 20:23:50;;;;;;;0.35;0.10;;;;;;;14.11;35.18;101817.69;15548464;28;20042;-86
2023/06/02 20:31:29;;;;;;;0.47;0.10;;;;;;;13.60;35.62;101830.91;15572678;28;20050;-86
2023/06/02 20:39:03;;;;;;;0.15;0.10;;;;;;;13.62;35.59;101808.09;15568962;28;20185;-88
2023/06/02 20:46:36;;;;;;;0.45;0.32;;;;;;;13.66;35.88;101841.72;15591855;28;20041;-86
2023/06/02 20:54:11;;;;;;;0.10;0.10;;;;;;;12.97;36.47;101780.66;15576661;28;20442;-85
2023/06/02 21:01:46;;;;;;;0.40;0.22;;;;;;;13.04;36.01;101772.59;15559740;28;20420;-85
2023/06/02 21:09:25;;;;;;;0.40;0.20;;;;;;;13.34;36.39;101853.25;15555182;28;20050;-84
2023/06/02 21:17:06;;;;;;;0.00;0.00;;;;;;;12.68;36.79;101789.84;15590738;28;20042;-86
2023/06/02 21:24:41;;;;;;;0.90;0.03;;;;;;;13.03;37.58;101859.88;15614955;28;20780;-87
2023/06/02 21:32:15;;;;;;;0.00;0.00;;;;;;;12.08;38.33;101720.50;15610824;28;20037;-84
2023/06/02 21:39:51;;;;;;;0.10;0.10;;;;;;;12.34;39.18;101790.66;15573487;28;20113;-85
2023/06/02 21:47:25;;;;;;;0.10;0.10;;;;;;;12.84;39.88;101866.81;15586848;28;20499;-84
2023/06/02 21:55:00;;;;;;;3.43;0.37;;;;;;;12.38;40.89;101834.16;15555728;28;20076;-84
2023/06/02 22:02:37;;;;;;;0.03;0.03;;;;;;;12.69;41.47;101839.16;15568488;28;20304;-85
2023/06/02 22:10:14;;;;;;;0.50;0.20;;;;;;;12.47;42.02;101849.16;15573895;28;20140;-85
2023/06/02 22:17:49;;;;;;;0.00;0.00;;;;;;;12.75;42.60;101858.06;15574755;28;20052;-85
2023/06/02 22:25:24;;;;;;;0.00;0.00;;;;;;;12.03;42.54;101772.22;15554823;28;20070;-86
2023/06/02 22:32:58;;;;;;;0.32;0.28;;;;;;;11.73;43.65;101798.38;15556400;28;20053;-86
2023/06/02 22:40:33;;;;;;;0.20;0.20;;;;;;;12.15;43.39;101819.06;15563038;28;20046;-87
2023/06/02 22:48:07;;;;;;;0.38;0.13;;;;;;;12.48;43.90;101881.25;15662050;22;20048;-47
2023/06/02 22:55:41;;;;;;;0.20;0.20;;;;;;;12.30;44.41;101875.50;15662168;28;20056;-51
2023/06/02 23:03:14;;;;;;;0.50;0.20;;;;;;;12.03;45.24;101887.06;15695552;22;20083;-52
2023/06/02 23:10:49;;;;;;;1.15;0.40;;;;;;;11.68;45.99;101893.09;15682021;28;20056;-52
2023/06/02 23:18:22;;;;;;;0.25;0.10;;;;;;;11.13;46.15;101901.66;15678960;28;20049;-50
2023/06/02 23:25:57;;;;;;;1.10;0.63;;;;;;;11.30;45.41;101897.78;15680410;28;20037;-55
2023/06/02 23:33:29;;;;;;;1.08;0.25;;;;;;;11.21;45.58;101902.41;15686931;28;20502;-54
2023/06/02 23:41:04;;;;;;;0.68;0.32;;;;;;;11.15;45.14;101902.34;15685971;28;20044;-52
2023/06/02 23:48:37;;;;;;;0.10;0.10;;;;;;;11.06;44.48;101895.38;15677308;28;20069;-53
2023/06/02 23:56:11;;;;;;;1.03;0.47;;;;;;;10.69;45.25;101906.00;15681769;28;20343;-52
